Time;durP1;ratioP1;P1;durP2;ratioP2;P2;SDS_P1;SDS_P2;PMS_P1;PMS_P2;Temp;Humidity;BMP_temperature;BMP_pressure;BME280_temperature;BME280_humidity;BME280_pressure;Samples;Min_cycle;Max_cycle;Signal;HPM_P1;HPM_P2
2022/10/11 00:00:35;;;;;;;22.73;16.08;;;7.40;86.60;;;;;;5003628;28;20026;-74
2022/10/11 00:03:01;;;;;;;25.50;15.57;;;7.40;86.70;;;;;;5006407;28;20069;-74
2022/10/11 00:05:27;;;;;;;21.33;14.52;;;7.40;86.70;;;;;;4987796;28;20054;-74
2022/10/11 00:07:53;;;;;;;21.83;14.30;;;7.40;86.60;;;;;;5006248;28;20311;-76
2022/10/11 00:10:19;;;;;;;20.73;14.35;;;7.40;86.60;;;;;;5004968;28;20092;-73
2022/10/11 00:12:45;;;;;;;22.75;14.52;;;7.40;86.40;;;;;;5006927;28;20033;-77
2022/10/11 00:15:14;;;;;;;21.48;15.23;;;7.30;86.40;;;;;;5007360;28;20034;-73
2022/10/11 00:17:39;;;;;;;20.20;13.88;;;7.30;86.50;;;;;;5006049;28;20355;-76
2022/10/11 00:20:05;;;;;;;19.17;13.85;;;7.30;86.50;;;;;;5003198;28;20161;-75
2022/10/11 00:22:31;;;;;;;20.33;14.63;;;7.20;86.60;;;;;;5004263;28;20222;-74
2022/10/11 00:24:58;;;;;;;20.55;14.82;;;7.30;86.60;;;;;;5005499;28;20036;-74
2022/10/11 00:27:23;;;;;;;19.60;13.32;;;7.20;86.60;;;;;;5008030;28;20045;-74
2022/10/11 00:29:49;;;;;;;22.65;13.70;;;7.20;86.70;;;;;;5006375;28;20034;-75
2022/10/11 00:32:15;;;;;;;21.52;13.95;;;7.30;86.70;;;;;;5005804;28;20107;-76
2022/10/11 00:34:41;;;;;;;20.67;14.25;;;7.20;86.60;;;;;;5003969;28;20041;-74
2022/10/11 00:37:06;;;;;;;18.77;14.15;;;7.20;86.60;;;;;;5004487;28;20050;-75
2022/10/11 00:39:32;;;;;;;20.10;13.20;;;7.10;86.60;;;;;;5004730;28;20065;-76
2022/10/11 00:41:58;;;;;;;20.77;13.93;;;7.10;86.60;;;;;;5005636;28;20026;-74
2022/10/11 00:44:26;;;;;;;21.95;12.93;;;7.20;86.70;;;;;;5003122;28;20040;-74
2022/10/11 00:46:56;;;;;;;19.38;12.48;;;7.10;86.60;;;;;;5005195;28;20053;-74
2022/10/11 00:49:31;;;;;;;17.77;12.90;;;7.10;86.60;;;;;;5004928;28;20175;-74
2022/10/11 00:52:22;;;;;;;19.50;12.20;;;7.10;86.70;;;;;;5003002;28;20038;-74
2022/10/11 00:54:48;;;;;;;18.60;13.35;;;7.10;86.70;;;;;;4981575;28;20493;-74
2022/10/11 00:57:23;;;;;;;22.52;13.32;;;7.10;86.60;;;;;;4990486;28;20034;-74
2022/10/11 00:59:52;;;;;;;17.73;12.95;;;7.10;86.70;;;;;;5007771;28;20054;-74
2022/10/11 01:02:19;;;;;;;20.95;13.13;;;7.00;86.50;;;;;;5008249;28;20116;-74
2022/10/11 01:04:44;;;;;;;15.77;11.30;;;7.00;86.50;;;;;;5010770;28;20478;-74
2022/10/11 01:07:12;;;;;;;18.63;12.80;;;6.90;86.30;;;;;;5006951;28;20181;-74
2022/10/11 01:09:37;;;;;;;18.75;12.25;;;6.90;86.20;;;;;;5017909;28;20111;-74
2022/10/11 01:12:11;;;;;;;19.75;13.15;;;6.90;86.20;;;;;;5006496;28;20041;-74
2022/10/11 01:14:53;;;;;;;22.48;13.45;;;6.90;86.20;;;;;;5002322;28;20081;-74
2022/10/11 01:17:53;;;;;;;19.77;12.32;;;6.80;86.40;;;;;;5002787;28;20034;-77
2022/10/11 01:20:40;;;;;;;19.13;13.52;;;6.80;86.40;;;;;;5002536;28;20277;-74
2022/10/11 01:23:21;;;;;;;15.52;11.38;;;6.80;86.50;;;;;;5002816;28;20080;-75
2022/10/11 01:25:58;;;;;;;19.70;13.00;;;6.80;86.50;;;;;;5001261;28;20036;-74
2022/10/11 01:28:42;;;;;;;19.92;12.07;;;6.70;86.60;;;;;;5001563;28;20037;-73
2022/10/11 01:31:20;;;;;;;17.05;11.00;;;6.70;86.50;;;;;;5003300;28;20034;-74
2022/10/11 01:33:58;;;;;;;17.42;12.27;;;6.80;86.40;;;;;;5011220;28;20412;-74
2022/10/11 01:36:31;;;;;;;19.17;12.02;;;6.70;86.30;;;;;;5003238;28;20034;-73
2022/10/11 01:39:08;;;;;;;19.75;12.05;;;6.70;86.30;;;;;;5002905;28;20493;-75
2022/10/11 01:41:38;;;;;;;20.23;12.13;;;6.70;86.50;;;;;;4997203;28;20537;-75
2022/10/11 01:44:05;;;;;;;20.95;12.63;;;6.70;86.50;;;;;;5001302;28;20038;-73
2022/10/11 01:46:32;;;;;;;16.90;11.52;;;6.60;86.60;;;;;;5002714;28;20058;-73
2022/10/11 01:49:00;;;;;;;19.42;11.88;;;6.60;86.60;;;;;;5014189;28;20038;-74
2022/10/11 01:51:45;;;;;;;18.85;12.02;;;6.60;86.60;;;;;;4999409;28;20034;-74
2022/10/11 01:54:23;;;;;;;18.27;12.40;;;6.70;86.70;;;;;;5000947;28;20030;-75
2022/10/11 01:57:14;;;;;;;23.85;12.40;;;6.70;86.80;;;;;;5018219;28;20057;-74
2022/10/11 02:00:04;;;;;;;21.45;12.43;;;6.70;86.90;;;;;;4996268;28;20365;-74
2022/10/11 02:03:03;;;;;;;22.70;13.60;;;6.70;87.00;;;;;;5006336;28;20041;-74
2022/10/11 02:05:47;;;;;;;21.05;13.07;;;6.70;87.10;;;;;;4984413;28;20572;-73
2022/10/11 02:08:32;;;;;;;21.38;12.52;;;6.70;87.20;;;;;;4985134;28;20062;-73
2022/10/11 02:11:32;;;;;;;20.73;12.70;;;6.60;87.30;;;;;;4996475;28;20034;-73
2022/10/11 02:14:07;;;;;;;18.95;11.88;;;6.70;87.20;;;;;;5001466;28;20057;-72
2022/10/11 02:16:56;;;;;;;16.90;11.50;;;6.70;87.10;;;;;;5000422;28;20030;-74
2022/10/11 02:19:27;;;;;;;16.75;12.30;;;6.60;87.00;;;;;;5002800;28;20057;-74
2022/10/11 02:22:01;;;;;;;22.02;12.77;;;6.60;87.00;;;;;;5007188;28;20377;-74
2022/10/11 02:24:31;;;;;;;18.63;11.43;;;6.60;87.00;;;;;;4986886;28;20117;-73
2022/10/11 02:26:58;;;;;;;22.13;12.30;;;6.60;87.10;;;;;;5000886;28;20030;-73
2022/10/11 02:29:28;;;;;;;18.60;11.38;;;6.60;87.10;;;;;;5002089;28;20044;-73
2022/10/11 02:31:56;;;;;;;19.60;11.80;;;6.50;86.90;;;;;;5008314;28;20085;-74
2022/10/11 02:34:32;;;;;;;20.30;11.30;;;6.50;86.90;;;;;;5005291;28;20055;-74
2022/10/11 02:37:00;;;;;;;17.77;12.00;;;6.50;87.00;;;;;;5007312;28;20169;-73
2022/10/11 02:39:49;;;;;;;19.30;13.13;;;6.50;87.00;;;;;;5005142;28;20046;-74
2022/10/11 02:42:25;;;;;;;19.65;12.00;;;6.40;87.10;;;;;;5002940;28;20029;-73
2022/10/11 02:44:59;;;;;;;19.70;11.50;;;6.40;87.10;;;;;;5006803;28;20034;-75
2022/10/11 02:47:28;;;;;;;16.40;10.90;;;6.40;87.20;;;;;;5020264;28;20082;-74
2022/10/11 02:49:53;;;;;;;21.88;11.98;;;6.30;87.30;;;;;;5011089;28;20139;-74
2022/10/11 02:52:19;;;;;;;20.65;12.82;;;6.40;87.30;;;;;;5012107;28;20474;-74
2022/10/11 02:54:45;;;;;;;20.50;12.35;;;6.40;87.40;;;;;;5008342;28;20036;-73
2022/10/11 02:57:10;;;;;;;18.10;12.02;;;6.40;87.40;;;;;;5005834;28;20454;-72
2022/10/11 02:59:36;;;;;;;19.40;11.68;;;6.40;87.40;;;;;;5006066;28;20042;-76
2022/10/11 03:02:02;;;;;;;19.77;11.75;;;6.40;87.30;;;;;;4999853;28;20038;-72
2022/10/11 03:04:28;;;;;;;19.90;12.30;;;6.30;87.40;;;;;;5007165;28;20092;-74
2022/10/11 03:06:53;;;;;;;18.27;11.70;;;6.40;87.30;;;;;;5010108;28;20567;-74
2022/10/11 03:09:19;;;;;;;22.35;12.52;;;6.30;87.20;;;;;;5004161;28;20042;-75
2022/10/11 03:11:45;;;;;;;20.55;11.90;;;6.30;87.20;;;;;;5005819;28;20030;-75
2022/10/11 03:14:10;;;;;;;21.02;12.05;;;6.20;87.00;;;;;;5006035;28;20034;-73
2022/10/11 03:16:36;;;;;;;19.05;12.93;;;6.20;86.90;;;;;;5006611;28;20034;-76
2022/10/11 03:19:02;;;;;;;20.02;13.73;;;6.10;86.80;;;;;;5004437;28;20049;-75
2022/10/11 03:21:27;;;;;;;17.75;12.27;;;6.10;87.00;;;;;;5009537;28;20063;-73
2022/10/11 03:23:53;;;;;;;22.50;12.43;;;6.10;87.10;;;;;;5012755;28;20495;-73
2022/10/11 03:26:18;;;;;;;18.67;11.98;;;6.10;87.20;;;;;;5008743;28;20034;-75
2022/10/11 03:28:44;;;;;;;21.00;13.98;;;6.10;87.40;;;;;;5004622;28;20474;-74
2022/10/11 03:31:10;;;;;;;20.25;13.70;;;6.10;87.50;;;;;;5004582;28;20060;-74
2022/10/11 03:33:36;;;;;;;21.88;14.05;;;6.10;87.60;;;;;;5005936;28;20397;-73
2022/10/11 03:36:01;;;;;;;18.42;11.95;;;6.10;87.70;;;;;;5006556;28;20117;-72
2022/10/11 03:38:27;;;;;;;20.55;12.93;;;6.20;87.80;;;;;;5005003;28;20351;-76
2022/10/11 03:40:53;;;;;;;19.75;12.10;;;6.10;87.80;;;;;;5005717;28;20032;-74
2022/10/11 03:43:19;;;;;;;22.50;12.82;;;6.10;87.80;;;;;;5006543;28;20683;-75
2022/10/11 03:45:45;;;;;;;18.33;12.88;;;6.10;87.80;;;;;;5004938;28;20038;-74
2022/10/11 03:48:10;;;;;;;17.77;12.20;;;6.10;87.80;;;;;;5006521;28;20033;-73
2022/10/11 03:50:37;;;;;;;20.05;12.80;;;6.10;87.70;;;;;;4986075;28;20502;-76
2022/10/11 03:53:04;;;;;;;20.13;12.82;;;6.00;87.80;;;;;;5003568;28;20112;-74
2022/10/11 03:55:29;;;;;;;20.35;14.27;;;6.10;87.80;;;;;;5003004;28;20046;-74
2022/10/11 03:57:55;;;;;;;19.38;12.55;;;6.00;87.80;;;;;;5006732;28;20042;-74
2022/10/11 04:00:21;;;;;;;18.25;12.55;;;6.00;87.80;;;;;;5004564;28;20041;-76
2022/10/11 04:02:47;;;;;;;20.23;11.65;;;6.00;87.80;;;;;;5002544;28;20064;-74
2022/10/11 04:05:12;;;;;;;18.48;13.00;;;5.90;87.70;;;;;;5008496;28;20034;-73
2022/10/11 04:07:39;;;;;;;18.90;12.57;;;5.90;87.80;;;;;;5010615;28;20113;-75
2022/10/11 04:10:05;;;;;;;17.88;11.75;;;6.00;87.80;;;;;;5006608;28;20034;-74
2022/10/11 04:12:31;;;;;;;22.10;12.80;;;5.90;87.80;;;;;;4999430;28;20120;-74
2022/10/11 04:14:57;;;;;;;19.55;12.38;;;5.90;87.90;;;;;;5004956;28;20105;-73
2022/10/11 04:17:23;;;;;;;19.00;12.32;;;5.90;87.80;;;;;;5005637;28;20124;-75
2022/10/11 04:19:48;;;;;;;17.58;11.65;;;5.80;87.70;;;;;;5007639;28;20489;-74
2022/10/11 04:22:14;;;;;;;17.27;12.02;;;5.80;87.60;;;;;;5007127;28;20034;-74
2022/10/11 04:24:40;;;;;;;20.00;11.93;;;5.80;87.50;;;;;;4997533;28;20516;-75
2022/10/11 04:27:06;;;;;;;18.63;12.15;;;5.80;87.60;;;;;;4986798;28;20034;-73
2022/10/11 04:29:31;;;;;;;18.38;12.18;;;5.80;87.60;;;;;;4992690;28;20485;-75
2022/10/11 04:31:57;;;;;;;24.35;13.65;;;5.80;87.50;;;;;;4993165;28;20047;-74
2022/10/11 04:34:23;;;;;;;21.98;12.95;;;5.80;87.50;;;;;;4990971;28;20030;-74
2022/10/11 04:36:48;;;;;;;17.17;11.48;;;5.70;87.60;;;;;;4992377;28;20116;-73
2022/10/11 04:39:14;;;;;;;21.80;12.95;;;5.70;87.50;;;;;;4997040;28;20049;-74
2022/10/11 04:41:40;;;;;;;20.73;12.38;;;5.70;87.70;;;;;;5006968;28;20370;-75
2022/10/11 04:44:05;;;;;;;18.42;11.88;;;5.70;87.60;;;;;;4994172;28;20038;-74
2022/10/11 04:46:31;;;;;;;18.23;11.38;;;5.70;87.60;;;;;;4993646;28;20042;-74
2022/10/11 04:48:58;;;;;;;17.05;11.55;;;5.70;87.60;;;;;;4992313;28;20381;-74
2022/10/11 04:51:24;;;;;;;17.25;11.02;;;5.70;87.50;;;;;;5001480;28;20041;-74
2022/10/11 04:53:49;;;;;;;17.90;11.88;;;5.70;87.60;;;;;;5006887;28;20061;-74
2022/10/11 04:56:17;;;;;;;19.83;12.68;;;5.60;87.50;;;;;;5007939;28;20025;-76
2022/10/11 04:58:46;;;;;;;18.40;11.88;;;5.60;87.40;;;;;;5007910;28;20041;-74
2022/10/11 05:01:12;;;;;;;17.45;12.55;;;5.60;87.50;;;;;;5002726;28;20029;-73
2022/10/11 05:03:38;;;;;;;17.55;12.38;;;5.60;87.40;;;;;;5000270;28;20092;-73
2022/10/11 05:06:04;;;;;;;24.90;12.73;;;5.60;87.40;;;;;;5002043;28;20489;-73
2022/10/11 05:08:30;;;;;;;18.77;13.20;;;5.50;87.30;;;;;;4994309;28;20068;-73
2022/10/11 05:11:01;;;;;;;23.25;14.90;;;5.50;87.40;;;;;;4992190;28;20516;-73
2022/10/11 05:13:28;;;;;;;22.67;13.52;;;5.50;87.40;;;;;;4974956;28;20046;-76
2022/10/11 05:15:54;;;;;;;24.98;14.77;;;5.50;87.50;;;;;;4991397;28;20062;-74
2022/10/11 05:18:19;;;;;;;21.80;15.20;;;5.60;87.60;;;;;;5007362;28;20125;-75
2022/10/11 05:20:45;;;;;;;22.20;14.52;;;5.60;87.70;;;;;;4991042;28;20041;-74
2022/10/11 05:23:11;;;;;;;21.45;15.60;;;5.60;87.50;;;;;;4992481;28;20119;-73
2022/10/11 05:25:37;;;;;;;26.75;16.23;;;5.60;87.40;;;;;;4990630;28;20405;-74
2022/10/11 05:28:02;;;;;;;23.15;15.25;;;5.60;87.50;;;;;;4998128;28;20232;-74
2022/10/11 05:30:28;;;;;;;20.63;15.27;;;5.60;87.60;;;;;;5003198;28;20029;-73
2022/10/11 05:32:54;;;;;;;24.00;15.50;;;5.60;87.70;;;;;;5002581;28;20037;-74
2022/10/11 05:35:19;;;;;;;22.92;16.25;;;5.60;87.80;;;;;;5003663;28;20068;-72
2022/10/11 05:37:45;;;;;;;23.17;14.73;;;5.60;87.90;;;;;;5001996;28;20042;-73
2022/10/11 05:40:11;;;;;;;26.42;16.23;;;5.70;87.90;;;;;;5001837;28;20036;-73
2022/10/11 06:16:03;;;;;;;23.42;16.98;;;5.80;87.50;;;;;;4943824;26;20031;-73
2022/10/11 06:18:29;;;;;;;25.77;17.30;;;5.90;87.40;;;;;;5002935;28;20462;-74
2022/10/11 06:20:57;;;;;;;28.75;18.13;;;5.90;87.30;;;;;;4997792;28;20289;-74
2022/10/11 06:23:23;;;;;;;27.27;18.70;;;5.90;87.30;;;;;;4987506;28;20075;-74
2022/10/11 06:25:59;;;;;;;30.48;18.42;;;6.00;87.30;;;;;;5005145;28;20042;-74
2022/10/11 06:28:27;;;;;;;25.15;17.48;;;6.10;87.30;;;;;;5011419;28;20434;-74
2022/10/11 06:30:53;;;;;;;23.13;16.73;;;6.10;87.30;;;;;;5024131;28;20040;-74
2022/10/11 06:33:20;;;;;;;27.15;19.08;;;6.30;87.30;;;;;;5004058;28;20178;-74
2022/10/11 06:35:45;;;;;;;24.33;18.13;;;6.30;87.20;;;;;;5023781;28;20028;-74
2022/10/11 06:38:11;;;;;;;24.70;17.52;;;6.50;87.10;;;;;;5025179;28;20033;-74
2022/10/11 06:40:37;;;;;;;25.80;17.85;;;6.60;86.90;;;;;;5009822;28;20041;-77
2022/10/11 06:43:02;;;;;;;26.98;18.67;;;6.60;86.70;;;;;;5028687;28;20519;-74
2022/10/11 06:45:28;;;;;;;29.58;20.33;;;6.60;86.30;;;;;;5025886;28;20440;-75
2022/10/11 06:47:54;;;;;;;26.63;19.13;;;6.70;86.40;;;;;;5022987;28;20065;-74
2022/10/11 06:50:19;;;;;;;26.35;18.83;;;6.70;86.50;;;;;;5031326;28;20033;-77
2022/10/11 06:52:46;;;;;;;28.67;19.65;;;6.90;86.60;;;;;;5010808;28;20037;-74
2022/10/11 06:55:12;;;;;;;23.48;18.67;;;7.00;86.70;;;;;;5027619;28;20033;-74
2022/10/11 06:57:37;;;;;;;29.42;20.95;;;7.10;86.60;;;;;;5012954;28;20048;-75
2022/10/11 07:00:05;;;;;;;25.85;20.02;;;7.10;86.50;;;;;;5032112;28;20112;-75
2022/10/11 07:02:31;;;;;;;26.38;20.23;;;7.20;86.50;;;;;;5032315;28;21296;-76
2022/10/11 07:04:56;;;;;;;30.05;21.27;;;7.30;86.60;;;;;;5016284;28;20076;-75
2022/10/11 07:07:22;;;;;;;27.00;19.50;;;7.40;86.60;;;;;;5027131;28;20040;-72
2022/10/11 07:09:48;;;;;;;31.02;22.00;;;7.50;86.60;;;;;;5021566;28;20045;-73
2022/10/11 07:12:15;;;;;;;23.88;19.58;;;7.50;86.50;;;;;;5024899;28;20039;-76
2022/10/11 07:14:40;;;;;;;26.55;19.60;;;7.60;86.70;;;;;;5025087;28;20966;-73
2022/10/11 07:17:06;;;;;;;24.60;18.13;;;7.60;86.80;;;;;;5026040;28;20644;-73
2022/10/11 07:19:32;;;;;;;23.88;18.02;;;7.70;86.80;;;;;;5023431;28;20524;-74
2022/10/11 07:21:57;;;;;;;26.98;19.52;;;7.70;86.80;;;;;;5011799;28;20660;-76
2022/10/11 07:24:23;;;;;;;25.23;19.17;;;7.90;87.00;;;;;;5012568;28;20475;-73
2022/10/11 07:26:49;;;;;;;25.42;18.02;;;7.90;87.00;;;;;;5014418;28;20351;-73
2022/10/11 07:29:14;;;;;;;25.55;19.30;;;8.00;87.10;;;;;;5014135;28;20029;-74
2022/10/11 07:31:41;;;;;;;27.88;21.90;;;8.10;87.20;;;;;;5013785;28;20029;-75
2022/10/11 07:34:07;;;;;;;24.48;18.90;;;8.10;87.30;;;;;;5017319;28;20076;-73
2022/10/11 07:36:33;;;;;;;24.38;17.58;;;8.30;87.50;;;;;;5013820;28;20108;-74
2022/10/11 07:38:59;;;;;;;31.98;22.60;;;8.30;87.50;;;;;;5013145;28;20177;-74
2022/10/11 07:41:24;;;;;;;30.88;22.08;;;8.40;87.50;;;;;;5010480;28;20123;-74
2022/10/11 07:43:50;;;;;;;31.20;22.08;;;8.50;87.80;;;;;;5016970;28;20672;-72
2022/10/11 07:46:18;;;;;;;33.50;24.23;;;8.60;87.90;;;;;;5015537;28;20025;-72
2022/10/11 07:48:44;;;;;;;30.38;22.92;;;8.70;87.70;;;;;;5007856;28;20033;-72
2022/10/11 07:51:17;;;;;;;33.13;23.70;;;8.90;87.80;;;;;;5012623;28;20307;-73
2022/10/11 07:53:47;;;;;;;30.90;23.42;;;9.00;87.70;;;;;;5006987;28;20433;-74
2022/10/11 07:56:16;;;;;;;34.42;24.45;;;9.20;87.70;;;;;;5010442;28;20358;-74
2022/10/11 07:58:42;;;;;;;26.85;22.40;;;9.40;87.70;;;;;;5013302;28;20025;-73
2022/10/11 08:01:09;;;;;;;45.33;29.15;;;9.50;87.80;;;;;;5012213;28;20037;-73
2022/10/11 08:03:36;;;;;;;38.85;28.08;;;9.60;87.70;;;;;;4994503;28;20030;-73
2022/10/11 08:06:07;;;;;;;43.50;26.73;;;9.80;87.30;;;;;;5011152;28;20037;-74
2022/10/11 08:08:33;;;;;;;36.10;27.08;;;10.00;87.40;;;;;;4994376;28;20025;-74
2022/10/11 08:10:59;;;;;;;40.35;27.65;;;10.20;87.20;;;;;;5013639;28;20041;-74
2022/10/11 08:13:25;;;;;;;39.33;27.50;;;10.40;86.80;;;;;;5013519;28;20405;-74
2022/10/11 08:15:51;;;;;;;38.63;23.27;;;10.60;86.60;;;;;;5012879;28;20334;-73
2022/10/11 08:18:17;;;;;;;28.20;21.73;;;10.80;85.60;;;;;;5012825;28;20118;-74
2022/10/11 08:20:43;;;;;;;29.92;22.02;;;11.00;85.90;;;;;;5002088;28;20076;-73
2022/10/11 08:23:09;;;;;;;31.42;21.38;;;11.30;85.40;;;;;;4994042;28;20432;-76
2022/10/11 08:25:41;;;;;;;25.38;20.67;;;11.50;85.10;;;;;;4999034;28;20121;-76
2022/10/11 08:28:08;;;;;;;32.25;20.88;;;11.70;84.70;;;;;;5015719;28;20055;-75
2022/10/11 08:30:34;;;;;;;28.95;20.48;;;12.00;83.80;;;;;;5010164;28;20030;-74
2022/10/11 08:33:00;;;;;;;32.30;21.27;;;12.20;83.20;;;;;;5013279;28;20029;-74
2022/10/11 08:35:26;;;;;;;32.22;21.45;;;12.40;82.20;;;;;;5002629;28;20033;-74
2022/10/11 08:37:55;;;;;;;29.63;19.80;;;12.60;81.00;;;;;;5002084;28;20021;-73
2022/10/11 08:40:23;;;;;;;30.80;20.35;;;12.80;80.30;;;;;;5005665;28;21913;-75
2022/10/11 08:43:12;;;;;;;27.08;16.98;;;13.00;79.60;;;;;;4995971;28;20377;-73
2022/10/11 08:45:54;;;;;;;23.85;14.30;;;13.10;78.40;;;;;;5020026;28;20041;-73
2022/10/11 08:48:45;;;;;;;26.17;15.50;;;13.20;77.50;;;;;;4991366;28;20357;-74
2022/10/11 08:51:28;;;;;;;23.65;14.05;;;13.50;77.40;;;;;;5018186;28;20037;-74
2022/10/11 08:54:03;;;;;;;22.05;13.55;;;13.60;76.10;;;;;;5009531;28;20484;-74
2022/10/11 08:56:31;;;;;;;27.45;14.63;;;13.60;75.20;;;;;;5025274;28;20021;-75
2022/10/11 08:59:11;;;;;;;28.33;14.82;;;13.60;75.00;;;;;;5014147;28;20472;-75
2022/10/11 09:01:53;;;;;;;22.50;13.10;;;13.60;75.50;;;;;;5018019;28;20386;-74
2022/10/11 09:04:19;;;;;;;21.23;12.88;;;13.70;75.40;;;;;;5011922;28;20029;-75
2022/10/11 09:07:13;;;;;;;26.50;12.95;;;13.80;75.30;;;;;;5019209;28;20094;-75
2022/10/11 09:09:55;;;;;;;20.02;13.27;;;14.00;75.50;;;;;;4993675;28;20033;-75
2022/10/11 09:12:41;;;;;;;23.70;12.57;;;14.10;74.30;;;;;;5011603;28;20060;-75
2022/10/11 09:15:13;;;;;;;19.02;11.93;;;14.30;73.70;;;;;;5011299;28;20527;-73
2022/10/11 09:18:08;;;;;;;20.27;10.77;;;14.40;73.10;;;;;;5012731;28;20044;-74
2022/10/11 09:20:52;;;;;;;16.85;10.98;;;14.60;72.90;;;;;;4984664;28;20119;-75
2022/10/11 09:23:36;;;;;;;21.20;11.88;;;14.70;72.50;;;;;;5012251;28;20030;-75
2022/10/11 09:26:13;;;;;;;19.67;11.07;;;14.80;70.70;;;;;;5020427;28;20029;-75
2022/10/11 09:28:57;;;;;;;23.13;11.15;;;14.80;71.00;;;;;;5011563;28;20033;-74
2022/10/11 09:31:23;;;;;;;18.05;10.40;;;15.10;70.90;;;;;;5008421;28;20473;-74
2022/10/11 09:33:50;;;;;;;23.10;11.57;;;15.20;70.00;;;;;;5012602;28;20040;-73
2022/10/11 09:36:16;;;;;;;25.40;12.35;;;15.30;68.90;;;;;;5015626;28;20025;-73
2022/10/11 09:38:44;;;;;;;18.75;11.68;;;15.20;68.70;;;;;;5030780;28;20064;-74
2022/10/11 09:41:22;;;;;;;20.08;11.38;;;15.10;68.90;;;;;;5016609;28;20080;-73
2022/10/11 09:43:49;;;;;;;18.83;10.30;;;15.30;69.20;;;;;;5000859;28;20034;-75
2022/10/11 09:46:23;;;;;;;18.55;9.18;;;15.60;68.50;;;;;;4977186;28;20048;-74
2022/10/11 09:48:50;;;;;;;19.00;9.60;;;15.80;68.30;;;;;;5012252;28;20455;-74
2022/10/11 09:51:20;;;;;;;18.83;9.70;;;16.00;66.20;;;;;;5010726;28;20129;-74
2022/10/11 09:53:53;;;;;;;14.40;7.80;;;16.10;67.50;;;;;;5014228;28;20033;-74
2022/10/11 09:56:19;;;;;;;20.70;9.48;;;16.30;66.80;;;;;;5013135;28;20032;-73
2022/10/11 09:58:45;;;;;;;19.60;9.05;;;16.30;64.10;;;;;;5013166;28;20049;-73
2022/10/11 10:01:21;;;;;;;20.88;7.70;;;16.30;64.80;;;;;;5010149;28;20037;-73
2022/10/11 10:03:46;;;;;;;14.32;6.68;;;16.20;63.80;;;;;;5011907;28;20040;-73
2022/10/11 10:06:21;;;;;;;14.90;5.90;;;16.30;64.80;;;;;;5010394;28;20037;-73
2022/10/11 10:08:47;;;;;;;13.70;5.15;;;16.40;62.00;;;;;;4992042;28;20184;-73
2022/10/11 10:11:14;;;;;;;11.50;3.10;;;16.50;60.90;;;;;;5011168;28;20017;-73
2022/10/11 10:13:52;;;;;;;10.55;3.40;;;16.60;60.40;;;;;;5013012;28;20661;-73
2022/10/11 10:16:27;;;;;;;13.85;6.63;;;16.50;57.90;;;;;;5010762;28;20091;-73
2022/10/11 10:18:57;;;;;;;15.07;5.78;;;16.60;58.10;;;;;;5000400;28;20034;-74
2022/10/11 10:21:27;;;;;;;9.80;3.63;;;16.70;56.70;;;;;;5015820;28;20060;-73
2022/10/11 10:23:54;;;;;;;14.13;4.55;;;16.90;57.20;;;;;;5019372;28;20033;-74
2022/10/11 10:26:22;;;;;;;13.93;4.35;;;16.80;55.60;;;;;;5008453;28;20464;-73
2022/10/11 10:29:09;;;;;;;11.80;4.97;;;16.70;57.80;;;;;;5007166;28;20465;-73
2022/10/11 10:31:53;;;;;;;13.45;3.95;;;16.80;57.60;;;;;;5007172;28;20042;-74
2022/10/11 10:34:26;;;;;;;12.38;5.70;;;17.10;58.10;;;;;;5008324;28;20069;-74
2022/10/11 10:37:05;;;;;;;11.27;4.80;;;17.00;57.80;;;;;;4986163;28;20388;-73
2022/10/11 10:39:42;;;;;;;12.73;4.95;;;17.10;57.70;;;;;;5007839;28;20060;-75
2022/10/11 10:42:16;;;;;;;13.65;5.70;;;17.10;58.00;;;;;;5004953;28;20061;-73
2022/10/11 10:44:43;;;;;;;14.77;7.22;;;17.10;59.00;;;;;;5005215;28;20061;-73
2022/10/11 10:47:22;;;;;;;16.42;5.68;;;17.10;59.30;;;;;;5007919;28;20029;-74
2022/10/11 10:49:56;;;;;;;14.30;5.60;;;17.10;58.20;;;;;;5012506;28;20382;-74
2022/10/11 10:52:46;;;;;;;13.55;5.05;;;17.20;58.30;;;;;;5006883;28;20037;-75
2022/10/11 10:55:35;;;;;;;16.20;5.07;;;17.10;59.00;;;;;;5007816;28;20038;-75
2022/10/11 10:58:06;;;;;;;13.68;4.68;;;17.20;58.10;;;;;;5007002;28;20017;-74
2022/10/11 11:00:50;;;;;;;11.13;4.72;;;17.30;57.00;;;;;;5008729;28;20046;-73
2022/10/11 11:03:24;;;;;;;9.77;4.15;;;17.40;57.40;;;;;;5012736;28;20370;-76
2022/10/11 11:06:06;;;;;;;12.25;4.22;;;17.40;58.00;;;;;;5017684;28;20042;-75
2022/10/11 11:08:54;;;;;;;12.05;4.03;;;17.10;57.40;;;;;;5005705;28;20576;-73
2022/10/11 11:11:43;;;;;;;13.18;4.60;;;17.10;57.60;;;;;;5005010;28;20037;-75
2022/10/11 11:14:26;;;;;;;12.63;4.47;;;17.10;56.80;;;;;;5006672;28;20081;-75
2022/10/11 11:17:06;;;;;;;12.07;4.18;;;17.30;55.90;;;;;;5007217;28;20033;-74
2022/10/11 11:19:54;;;;;;;10.90;3.97;;;17.40;56.40;;;;;;5006015;28;20129;-74
2022/10/11 11:22:37;;;;;;;13.70;3.50;;;17.40;57.00;;;;;;5008396;28;20112;-75
2022/10/11 11:25:30;;;;;;;12.07;3.25;;;17.70;57.10;;;;;;5014993;28;20484;-76
2022/10/11 11:28:23;;;;;;;15.25;3.80;;;17.60;54.40;;;;;;5021385;28;20025;-77
2022/10/11 11:31:09;;;;;;;12.68;3.75;;;17.50;54.70;;;;;;5014017;28;20052;-77
2022/10/11 11:33:37;;;;;;;12.73;3.22;;;17.60;54.30;;;;;;5023201;28;20029;-76
2022/10/11 11:36:14;;;;;;;10.23;2.50;;;17.80;55.20;;;;;;5026538;28;20148;-75
2022/10/11 11:38:49;;;;;;;12.63;2.83;;;17.80;53.60;;;;;;5026971;28;20044;-75
2022/10/11 11:41:43;;;;;;;12.30;3.20;;;17.80;52.60;;;;;;5025097;28;20033;-75
2022/10/11 11:44:18;;;;;;;12.90;2.75;;;17.60;53.10;;;;;;5008463;28;20147;-75
2022/10/11 11:46:54;;;;;;;11.70;3.38;;;17.20;54.00;;;;;;5022396;28;20026;-74
2022/10/11 11:49:38;;;;;;;13.00;3.42;;;17.50;52.40;;;;;;5027459;28;20041;-76
2022/10/11 11:52:06;;;;;;;11.17;2.70;;;17.40;54.00;;;;;;5028061;28;20466;-75
2022/10/11 11:55:10;;;;;;;11.05;2.72;;;17.40;54.70;;;;;;5004821;28;20815;-75
2022/10/11 11:57:54;;;;;;;9.52;2.55;;;17.40;53.40;;;;;;5017423;28;20051;-75
2022/10/11 12:00:23;;;;;;;12.82;2.70;;;17.60;53.80;;;;;;5015944;28;20217;-74
2022/10/11 12:02:59;;;;;;;9.80;2.63;;;17.60;53.70;;;;;;5016315;28;20028;-75
2022/10/11 12:05:29;;;;;;;10.77;3.22;;;17.40;53.70;;;;;;5005990;28;20087;-74
2022/10/11 12:08:19;;;;;;;12.65;3.25;;;17.30;54.30;;;;;;5023192;28;20030;-74
2022/10/11 12:10:58;;;;;;;11.93;2.95;;;17.60;54.20;;;;;;4998775;28;20080;-75
2022/10/11 12:13:29;;;;;;;11.90;2.97;;;17.70;54.40;;;;;;5020499;28;20109;-74
2022/10/11 12:16:00;;;;;;;12.23;2.88;;;17.90;52.30;;;;;;5010311;28;20045;-74
2022/10/11 12:18:27;;;;;;;11.25;2.88;;;17.90;51.80;;;;;;5002956;28;20033;-74
2022/10/11 12:21:17;;;;;;;13.43;3.70;;;18.10;52.00;;;;;;5031542;28;20033;-75
2022/10/11 12:23:46;;;;;;;10.95;2.97;;;18.10;50.90;;;;;;5029643;28;20037;-75
2022/10/11 12:26:26;;;;;;;12.77;3.20;;;18.10;51.20;;;;;;5026702;28;20025;-74
2022/10/11 12:29:23;;;;;;;9.95;2.47;;;18.30;50.10;;;;;;5022946;28;20042;-79
2022/10/11 12:32:10;;;;;;;12.27;3.63;;;18.60;50.60;;;;;;5032384;28;20094;-76
2022/10/11 12:34:40;;;;;;;12.55;3.13;;;18.60;49.70;;;;;;5029984;28;20026;-75
2022/10/11 12:37:18;;;;;;;10.05;2.40;;;18.40;48.80;;;;;;5028461;28;20034;-77
2022/10/11 12:39:52;;;;;;;11.15;3.30;;;18.10;49.80;;;;;;5007517;28;20170;-76
2022/10/11 12:42:36;;;;;;;11.82;3.03;;;18.10;51.20;;;;;;5009704;28;20363;-77
2022/10/11 12:45:12;;;;;;;;;;;18.10;49.80;;;;;;5024155;28;20125;-76
2022/10/11 12:47:43;;;;;;;13.27;3.38;;;17.80;51.80;;;;;;5026200;28;19995;-75
2022/10/11 12:50:18;;;;;;;13.02;3.35;;;18.00;50.60;;;;;;5027055;28;20134;-76
2022/10/11 12:53:23;;;;;;;10.90;3.03;;;18.10;49.90;;;;;;5027965;28;20036;-77
2022/10/11 12:55:51;;;;;;;11.50;3.80;;;18.40;50.10;;;;;;5023059;28;20485;-76
2022/10/11 12:58:46;;;;;;;9.63;2.70;;;18.60;50.90;;;;;;5025308;28;20397;-75
2022/10/11 13:01:21;;;;;;;11.85;3.33;;;18.70;49.80;;;;;;5007073;28;20041;-74
2022/10/11 13:04:07;;;;;;;10.05;2.53;;;18.50;49.70;;;;;;5034245;28;20049;-74
2022/10/11 13:06:46;;;;;;;10.93;3.13;;;18.40;48.50;;;;;;5026355;28;20822;-77
2022/10/11 13:09:29;;;;;;;10.30;2.63;;;18.40;48.80;;;;;;5027211;28;20041;-76
2022/10/11 13:12:17;;;;;;;10.13;2.80;;;18.40;50.10;;;;;;5049452;28;20025;-76
2022/10/11 13:14:56;;;;;;;9.30;3.15;;;18.50;49.80;;;;;;5031599;28;20048;-76
2022/10/11 13:17:29;;;;;;;9.90;2.80;;;18.60;49.60;;;;;;5030192;28;20052;-75
2022/10/11 13:20:14;;;;;;;9.83;2.50;;;18.60;49.10;;;;;;5033356;28;20049;-75
2022/10/11 13:22:40;;;;;;;10.27;2.70;;;18.60;49.30;;;;;;5024510;28;20053;-75
2022/10/11 13:25:07;;;;;;;8.20;2.47;;;18.60;49.10;;;;;;5027729;28;20033;-75
2022/10/11 13:27:36;;;;;;;10.50;2.85;;;18.70;49.70;;;;;;5029134;28;20025;-77
2022/10/11 13:30:23;;;;;;;10.27;2.97;;;18.80;49.30;;;;;;5026622;28;20485;-76
2022/10/11 13:32:50;;;;;;;10.55;2.83;;;18.50;48.90;;;;;;5029105;28;20456;-75